createdAt,value
2022-08-02T00:00:35.537Z,24.18
2022-08-02T00:03:03.786Z,24.11
2022-08-02T00:05:33.705Z,23.95
2022-08-02T00:08:01.851Z,24.10
2022-08-02T00:10:30.497Z,23.96
2022-08-02T00:12:59.092Z,23.92
2022-08-02T00:15:27.328Z,23.82
2022-08-02T00:17:55.521Z,23.92
2022-08-02T00:20:23.706Z,23.83
2022-08-02T00:22:53.293Z,23.86
2022-08-02T00:25:21.545Z,23.81
2022-08-02T00:27:49.718Z,23.88
2022-08-02T00:30:18.018Z,23.90
2022-08-02T00:32:46.122Z,23.83
2022-08-02T00:35:14.298Z,24.00
2022-08-02T00:37:42.785Z,23.75
2022-08-02T00:40:13.106Z,23.66
2022-08-02T00:42:41.526Z,23.59
2022-08-02T00:45:10.402Z,23.68
2022-08-02T00:47:38.604Z,23.74
2022-08-02T00:50:07.560Z,23.56
2022-08-02T00:52:35.687Z,23.87
2022-08-02T00:55:03.822Z,23.92
2022-08-02T00:57:33.439Z,23.89
2022-08-02T01:00:01.548Z,23.94
2022-08-02T01:02:29.775Z,23.62
2022-08-02T01:04:58.020Z,23.56
2022-08-02T01:07:26.669Z,23.59
2022-08-02T01:09:55.084Z,23.77
2022-08-02T01:12:23.430Z,23.83
2022-08-02T01:14:54.004Z,23.81
2022-08-02T01:17:38.105Z,23.66
2022-08-02T01:20:12.524Z,23.79
2022-08-02T01:23:02.090Z,23.58
2022-08-02T01:25:46.489Z,23.61
2022-08-02T01:28:28.072Z,23.39
2022-08-02T01:31:00.298Z,23.40
2022-08-02T01:33:37.993Z,23.54
2022-08-02T01:36:07.211Z,23.73
2022-08-02T01:38:39.611Z,23.54
2022-08-02T01:41:09.583Z,23.51
2022-08-02T01:43:39.632Z,23.64
2022-08-02T01:46:08.596Z,23.21
2022-08-02T01:48:36.739Z,23.57
2022-08-02T01:51:05.420Z,23.48
2022-08-02T01:53:34.376Z,23.48
2022-08-02T01:56:06.870Z,23.58
2022-08-02T01:58:36.960Z,23.60
2022-08-02T02:01:18.579Z,23.61
2022-08-02T02:03:48.676Z,23.55
2022-08-02T02:06:18.236Z,23.58
2022-08-02T02:08:46.656Z,23.66
2022-08-02T02:12:06.427Z,23.78
2022-08-02T02:14:05.209Z,23.76
2022-08-02T02:16:35.125Z,23.75
2022-08-02T02:19:07.284Z,23.67
2022-08-02T02:21:35.372Z,23.65
2022-08-02T02:24:07.195Z,23.54
2022-08-02T02:26:41.392Z,23.71
2022-08-02T02:29:22.064Z,23.52
2022-08-02T02:31:54.620Z,23.30
2022-08-02T02:34:26.889Z,23.48
2022-08-02T02:36:55.369Z,23.59
2022-08-02T02:39:24.509Z,23.45
2022-08-02T02:41:55.186Z,23.42
2022-08-02T02:44:24.172Z,23.40
2022-08-02T02:46:55.341Z,23.29
2022-08-02T02:49:24.520Z,23.47
2022-08-02T02:51:53.472Z,23.26
2022-08-02T03:06:58.008Z,23.34
2022-08-02T03:09:26.236Z,23.45
2022-08-02T03:11:55.053Z,23.21
2022-08-02T03:14:25.086Z,23.42
2022-08-02T03:16:55.822Z,23.48
2022-08-02T03:19:24.309Z,23.26
2022-08-02T03:22:02.924Z,23.23
2022-08-02T03:24:31.151Z,23.28
2022-08-02T03:26:59.779Z,23.18
2022-08-02T03:29:31.471Z,23.34
2022-08-02T03:32:02.740Z,23.12
2022-08-02T03:34:31.074Z,23.22
2022-08-02T03:37:01.587Z,23.14
2022-08-02T03:39:33.420Z,23.14
2022-08-02T03:42:02.611Z,22.83
2022-08-02T03:44:31.485Z,23.07
2022-08-02T03:47:00.012Z,23.23
2022-08-02T03:49:29.275Z,23.26
2022-08-02T03:51:57.852Z,23.11
2022-08-02T03:54:33.087Z,23.19
2022-08-02T03:57:15.612Z,23.11
2022-08-02T03:59:45.301Z,23.13
2022-08-02T04:02:14.711Z,23.17
2022-08-02T04:04:43.341Z,22.94
2022-08-02T04:07:11.477Z,23.11
2022-08-02T04:09:39.733Z,22.88
2022-08-02T04:12:10.994Z,22.94
2022-08-02T04:14:40.809Z,22.75
2022-08-02T04:17:10.164Z,23.12
2022-08-02T04:19:40.287Z,22.92
2022-08-02T04:22:10.770Z,22.65
2022-08-02T04:24:41.485Z,22.69
2022-08-02T04:27:49.263Z,22.77
2022-08-02T04:30:03.292Z,23.01
2022-08-02T04:32:32.567Z,22.84
2022-08-02T04:38:05.504Z,22.98
2022-08-02T04:40:38.822Z,23.23
2022-08-02T04:43:07.149Z,22.90
2022-08-02T04:45:37.229Z,22.92
2022-08-02T04:48:06.566Z,23.07
2022-08-02T04:50:35.025Z,23.30
2022-08-02T04:53:03.467Z,22.96
2022-08-02T04:55:31.650Z,22.89
2022-08-02T04:58:03.761Z,23.12
2022-08-02T05:00:36.530Z,23.36
2022-08-02T05:03:07.505Z,23.20
2022-08-02T05:05:35.685Z,23.28
2022-08-02T05:08:06.912Z,23.24
2022-08-02T05:10:36.082Z,23.40
2022-08-02T05:13:06.293Z,23.46
2022-08-02T05:15:34.473Z,23.34
2022-08-02T05:18:04.094Z,23.49
2022-08-02T05:20:32.440Z,23.72
2022-08-02T05:23:00.562Z,23.64
2022-08-02T05:25:28.856Z,23.75
2022-08-02T05:27:57.143Z,23.71
2022-08-02T05:30:25.405Z,23.73
2022-08-02T05:32:55.041Z,23.91
2022-08-02T05:35:25.915Z,23.99
2022-08-02T05:37:54.249Z,24.07
2022-08-02T05:40:25.865Z,23.92
2022-08-02T05:42:54.540Z,23.99
2022-08-02T05:45:23.006Z,24.13
2022-08-02T05:47:51.402Z,24.30
2022-08-02T05:50:20.042Z,24.33
2022-08-02T05:52:53.047Z,24.50
2022-08-02T05:55:26.395Z,24.55
2022-08-02T05:57:59.619Z,24.57
2022-08-02T06:00:32.215Z,24.64
2022-08-02T06:03:05.702Z,24.76
2022-08-02T06:05:36.636Z,24.26
2022-08-02T06:08:09.990Z,24.29
2022-08-02T06:10:39.273Z,24.41
2022-08-02T06:13:14.416Z,24.28
2022-08-02T06:15:53.622Z,24.11
2022-08-02T06:18:28.336Z,24.27
2022-08-02T06:22:40.238Z,24.32
2022-08-02T06:23:57.581Z,24.56
2022-08-02T06:26:28.126Z,24.72
2022-08-02T06:28:58.461Z,24.73
2022-08-02T06:31:27.180Z,24.75
2022-08-02T06:33:55.685Z,24.67
2022-08-02T06:36:30.925Z,24.39
2022-08-02T06:39:05.094Z,24.47
2022-08-02T06:41:41.067Z,24.41
2022-08-02T06:44:45.530Z,24.35
2022-08-02T06:47:11.180Z,24.34
2022-08-02T06:49:52.599Z,24.26
2022-08-02T06:52:27.763Z,24.29
2022-08-02T06:54:59.434Z,24.38
2022-08-02T06:57:28.484Z,24.36
2022-08-02T06:59:57.042Z,24.35
2022-08-02T07:02:25.623Z,24.21
2022-08-02T07:04:56.300Z,24.34
2022-08-02T07:07:24.627Z,24.23
2022-08-02T07:09:56.512Z,24.39
2022-08-02T07:12:32.541Z,24.34
2022-08-02T07:15:01.314Z,24.45
2022-08-02T07:17:29.863Z,24.28
2022-08-02T07:19:59.922Z,24.32
2022-08-02T07:22:29.400Z,24.44
2022-08-02T07:24:59.055Z,24.38
2022-08-02T07:27:27.332Z,24.28
2022-08-02T07:29:57.104Z,24.30
2022-08-02T07:32:28.791Z,24.43
2022-08-02T07:34:57.949Z,24.47
2022-08-02T07:37:53.114Z,24.43
2022-08-02T07:40:19.885Z,24.49
2022-08-02T07:42:49.853Z,24.33
2022-08-02T07:45:19.428Z,24.52
2022-08-02T07:47:50.317Z,24.67
2022-08-02T07:50:19.860Z,24.79
2022-08-02T07:52:48.811Z,24.83
2022-08-02T07:55:20.525Z,24.84
2022-08-02T07:57:50.386Z,24.97
2022-08-02T08:00:20.608Z,25.23
2022-08-02T08:02:48.987Z,25.31
2022-08-02T08:05:18.796Z,25.11
2022-08-02T08:07:49.418Z,25.08
2022-08-02T08:10:17.710Z,25.06
2022-08-02T08:12:46.087Z,24.99
2022-08-02T08:15:14.404Z,25.06
2022-08-02T08:17:44.369Z,24.98
2022-08-02T08:20:15.910Z,25.13
2022-08-02T08:22:44.441Z,24.96
2022-08-02T08:25:12.846Z,25.24
2022-08-02T08:27:50.027Z,25.09
2022-08-02T08:30:18.460Z,25.20
2022-08-02T08:32:48.357Z,25.32
2022-08-02T08:35:18.070Z,25.46
2022-08-02T08:37:46.682Z,25.62
2022-08-02T08:42:48.481Z,25.22
2022-08-02T08:45:18.196Z,25.60
2022-08-02T08:47:53.355Z,25.35
2022-08-02T08:50:25.985Z,25.48
2022-08-02T08:52:58.452Z,25.04
2022-08-02T08:55:28.537Z,24.97
2022-08-02T08:57:57.523Z,25.08
2022-08-02T09:00:25.938Z,25.13
2022-08-02T09:02:55.644Z,25.08
2022-08-02T09:05:24.121Z,25.05
2022-08-02T09:07:53.993Z,25.16
2022-08-02T09:10:42.472Z,25.01
2022-08-02T09:13:31.271Z,25.08
2022-08-02T09:16:12.090Z,25.26
2022-08-02T09:18:45.711Z,25.32
2022-08-02T09:21:16.249Z,25.54
2022-08-02T09:23:46.859Z,25.61
2022-08-02T09:26:16.561Z,25.48
2022-08-02T09:28:46.584Z,25.46
2022-08-02T09:31:18.186Z,25.49
2022-08-02T09:33:52.472Z,25.71
2022-08-02T09:36:21.283Z,25.90
2022-08-02T09:39:01.635Z,26.42
2022-08-02T09:41:31.502Z,26.05
2022-08-02T09:44:05.087Z,26.01
2022-08-02T09:46:38.299Z,26.17
2022-08-02T09:49:10.374Z,26.60
2022-08-02T09:51:50.912Z,26.66
2022-08-02T09:54:21.134Z,26.74
2022-08-02T09:56:53.774Z,27.02
2022-08-02T09:59:24.907Z,26.80
2022-08-02T10:02:17.097Z,26.88
2022-08-02T10:04:52.599Z,26.89
2022-08-02T10:07:23.583Z,27.24
2022-08-02T10:09:52.392Z,27.22
2022-08-02T10:12:22.373Z,27.44
2022-08-02T10:14:54.531Z,27.27
2022-08-02T10:17:23.155Z,27.54
2022-08-02T10:20:02.232Z,27.92
2022-08-02T10:22:31.990Z,27.83
2022-08-02T10:25:00.275Z,28.06
2022-08-02T10:27:43.161Z,27.47
2022-08-02T10:30:19.779Z,27.72
2022-08-02T10:32:48.985Z,28.07
2022-08-02T10:35:25.587Z,27.84
2022-08-02T10:37:55.718Z,27.23
2022-08-02T10:40:27.535Z,27.24
2022-08-02T10:43:01.026Z,27.57
2022-08-02T10:45:29.885Z,27.70
2022-08-02T10:48:03.791Z,28.17
2022-08-02T10:50:55.764Z,28.14
2022-08-02T10:53:33.873Z,28.06
2022-08-02T10:56:03.871Z,28.50
2022-08-02T10:58:33.852Z,29.00
2022-08-02T11:01:12.640Z,28.47
2022-08-02T11:03:42.232Z,28.95
2022-08-02T11:06:25.985Z,28.97
2022-08-02T11:09:32.960Z,28.26
2022-08-02T11:12:03.691Z,28.04
2022-08-02T11:14:34.786Z,28.04
2022-08-02T11:17:14.035Z,28.04
2022-08-02T11:20:18.066Z,28.15
2022-08-02T11:22:52.907Z,28.44
2022-08-02T11:26:02.859Z,28.53
2022-08-02T11:28:25.837Z,29.39
2022-08-02T11:30:59.038Z,29.26
2022-08-02T11:33:36.688Z,29.47
2022-08-02T11:36:07.604Z,29.82
2022-08-02T11:38:42.225Z,29.48
2022-08-02T11:41:13.705Z,29.22
2022-08-02T11:44:02.096Z,29.66
2022-08-02T11:46:30.530Z,29.77
2022-08-02T11:49:12.802Z,29.50
2022-08-02T11:51:59.687Z,29.00
2022-08-02T11:54:30.835Z,29.33
2022-08-02T11:57:19.878Z,29.90
2022-08-02T11:59:50.786Z,29.55
2022-08-02T12:02:19.675Z,29.66
2022-08-02T12:04:58.052Z,28.72
2022-08-02T12:07:35.406Z,28.53
2022-08-02T12:10:40.745Z,28.51
2022-08-02T12:13:09.394Z,29.06
2022-08-02T12:16:15.237Z,29.85
2022-08-02T12:19:07.334Z,29.87
2022-08-02T12:21:35.774Z,30.35
2022-08-02T12:24:07.006Z,30.48
2022-08-02T12:26:45.255Z,30.68
2022-08-02T12:29:56.420Z,29.94
2022-08-02T12:32:32.040Z,30.14
2022-08-02T12:35:06.466Z,28.78
2022-08-02T12:37:35.125Z,29.70
2022-08-02T12:40:25.454Z,30.67
2022-08-02T12:43:05.400Z,31.35
2022-08-02T12:45:49.237Z,31.58
2022-08-02T12:48:37.415Z,31.58
2022-08-02T12:51:55.772Z,31.33
2022-08-02T12:54:26.869Z,31.51
2022-08-02T12:57:05.614Z,32.27
2022-08-02T12:59:40.255Z,31.37
2022-08-02T13:02:11.658Z,31.83
2022-08-02T13:04:50.056Z,32.27
2022-08-02T13:07:19.795Z,32.30
2022-08-02T13:10:00.308Z,31.98
2022-08-02T13:12:37.828Z,32.43
2022-08-02T13:15:49.724Z,32.73
2022-08-02T13:18:06.681Z,31.71
2022-08-02T13:20:35.054Z,31.71
2022-08-02T13:23:04.387Z,32.14
2022-08-02T13:25:35.698Z,32.27
2022-08-02T13:28:09.213Z,32.96
2022-08-02T13:30:39.038Z,32.90
2022-08-02T13:33:07.523Z,32.31
2022-08-02T13:35:38.341Z,32.69
2022-08-02T13:38:11.743Z,33.18
2022-08-02T13:41:03.886Z,33.41
2022-08-02T13:43:54.065Z,32.79
2022-08-02T13:46:28.749Z,33.01
2022-08-02T13:48:59.547Z,33.15
2022-08-02T13:51:27.986Z,33.75
2022-08-02T13:53:56.102Z,33.88
2022-08-02T13:56:35.213Z,34.06
2022-08-02T13:59:53.907Z,33.99
2022-08-02T14:01:57.287Z,33.95
2022-08-02T14:04:26.408Z,34.09
2022-08-02T14:06:58.888Z,34.50
2022-08-02T14:09:27.635Z,34.07
2022-08-02T14:11:57.223Z,34.35
2022-08-02T14:14:25.546Z,33.95
2022-08-02T14:16:56.534Z,32.51
2022-08-02T14:19:24.816Z,32.98
2022-08-02T14:21:53.041Z,33.75
2022-08-02T14:24:39.742Z,32.21
2022-08-02T14:27:08.241Z,31.79
2022-08-02T14:29:36.676Z,31.22
2022-08-02T14:32:07.059Z,31.04
2022-08-02T14:34:35.721Z,31.48
2022-08-02T14:37:06.906Z,32.76
2022-08-02T14:39:42.936Z,33.45
2022-08-02T14:42:23.763Z,33.38
2022-08-02T14:44:55.042Z,33.76
2022-08-02T14:47:24.760Z,33.97
2022-08-02T14:49:52.900Z,34.16
2022-08-02T14:52:21.132Z,33.56
2022-08-02T14:54:49.672Z,33.94
2022-08-02T14:57:19.039Z,33.78
2022-08-02T14:59:47.599Z,33.90
2022-08-02T15:02:16.289Z,34.12
2022-08-02T15:04:46.139Z,34.39
2022-08-02T15:07:15.104Z,33.74
2022-08-02T15:09:43.229Z,34.02
2022-08-02T15:12:12.821Z,33.88
2022-08-02T15:14:41.319Z,34.05
2022-08-02T15:17:10.236Z,33.10
2022-08-02T15:19:58.913Z,32.25
2022-08-02T15:22:30.031Z,31.44
2022-08-02T15:24:59.459Z,31.11
2022-08-02T15:27:27.821Z,31.05
2022-08-02T15:30:00.195Z,31.07
2022-08-02T15:32:28.674Z,31.69
2022-08-02T15:34:59.878Z,32.91
2022-08-02T15:37:32.526Z,33.59
2022-08-02T15:40:01.004Z,34.05
2022-08-02T15:42:30.323Z,33.78
2022-08-02T15:45:00.327Z,34.70
2022-08-02T15:47:28.730Z,34.85
2022-08-02T15:49:58.697Z,34.23
2022-08-02T15:52:27.255Z,35.18
2022-08-02T15:55:07.422Z,35.11
2022-08-02T15:57:36.510Z,35.88
2022-08-02T16:00:06.051Z,36.46
2022-08-02T16:02:34.331Z,36.53
2022-08-02T16:05:02.794Z,35.89
2022-08-02T16:07:42.312Z,36.12
2022-08-02T16:10:12.398Z,36.45
2022-08-02T16:12:41.131Z,35.28
2022-08-02T16:15:10.732Z,35.89
2022-08-02T16:17:49.041Z,36.23
2022-08-02T16:20:24.361Z,35.17
2022-08-02T16:22:52.870Z,35.19
2022-08-02T16:25:22.530Z,35.77
2022-08-02T16:27:59.516Z,36.06
2022-08-02T16:30:37.810Z,35.57
2022-08-02T16:33:06.296Z,35.57
2022-08-02T16:35:34.981Z,35.80
2022-08-02T16:38:03.171Z,36.27
2022-08-02T16:40:34.648Z,35.23
2022-08-02T16:43:03.404Z,33.77
2022-08-02T16:45:37.722Z,33.55
2022-08-02T16:50:56.227Z,32.53
2022-08-02T16:53:36.298Z,33.05
2022-08-02T16:56:07.421Z,33.98
2022-08-02T16:58:36.169Z,34.42
2022-08-02T17:01:05.801Z,34.14
2022-08-02T17:03:56.867Z,34.30
2022-08-02T17:06:22.417Z,34.43
2022-08-02T17:08:56.406Z,34.23
2022-08-02T17:11:26.146Z,33.62
2022-08-02T17:13:54.449Z,33.64
2022-08-02T17:16:25.718Z,33.78
2022-08-02T17:18:56.702Z,33.86
2022-08-02T17:21:25.122Z,33.91
2022-08-02T17:24:07.573Z,33.44
2022-08-02T17:26:39.004Z,33.45
2022-08-02T17:29:14.426Z,33.39
2022-08-02T17:32:05.654Z,33.09
2022-08-02T17:34:35.813Z,32.67
2022-08-02T17:37:05.604Z,32.14
2022-08-02T17:39:44.066Z,31.85
2022-08-02T17:42:23.452Z,31.43
2022-08-02T17:44:53.718Z,31.21
2022-08-02T17:47:22.325Z,30.81
2022-08-02T17:52:51.432Z,30.32
2022-08-02T17:55:21.617Z,30.06
2022-08-02T17:57:57.021Z,29.76
2022-08-02T18:00:33.927Z,29.69
2022-08-02T18:03:05.668Z,29.73
2022-08-02T18:08:23.936Z,29.55
2022-08-02T18:10:52.842Z,29.58
2022-08-02T18:13:22.917Z,29.06
2022-08-02T18:18:41.885Z,29.28
2022-08-02T18:21:22.255Z,29.26
2022-08-02T18:23:58.813Z,29.13
2022-08-02T18:26:29.247Z,29.12
2022-08-02T18:29:00.032Z,28.91
2022-08-02T18:31:28.496Z,28.79
2022-08-02T18:34:07.781Z,28.86
2022-08-02T18:36:36.176Z,28.64
2022-08-02T18:39:15.683Z,28.74
2022-08-02T18:41:47.861Z,28.66
2022-08-02T18:44:18.755Z,28.26
2022-08-02T18:46:49.399Z,28.14
2022-08-02T18:49:17.988Z,28.33
2022-08-02T18:51:49.271Z,28.38
2022-08-02T18:54:30.746Z,28.14
2022-08-02T18:57:04.257Z,28.33
2022-08-02T18:59:54.715Z,28.27
2022-08-02T19:02:24.943Z,28.14
2022-08-02T19:04:56.376Z,28.06
2022-08-02T19:07:25.486Z,27.80
2022-08-02T19:10:14.000Z,27.75
2022-08-02T19:12:42.485Z,27.75
2022-08-02T19:15:17.316Z,27.88
2022-08-02T19:17:55.302Z,27.91
2022-08-02T19:20:29.098Z,27.78
2022-08-02T19:22:58.039Z,27.74
2022-08-02T19:25:28.151Z,27.88
2022-08-02T19:28:09.819Z,27.99
2022-08-02T19:30:45.924Z,27.93
2022-08-02T19:33:54.856Z,27.87
2022-08-02T19:36:08.098Z,27.81
2022-08-02T19:38:40.674Z,27.74
2022-08-02T19:41:17.317Z,27.67
2022-08-02T19:44:23.899Z,27.65
2022-08-02T19:46:42.461Z,27.72
2022-08-02T19:49:39.211Z,27.64
2022-08-02T19:52:20.520Z,27.54
2022-08-02T19:54:55.740Z,27.52
2022-08-02T19:57:26.226Z,27.59
2022-08-02T19:59:57.305Z,27.63
2022-08-02T20:02:28.405Z,27.40
2022-08-02T20:04:57.731Z,27.34
2022-08-02T20:07:55.246Z,27.31
2022-08-02T20:10:24.617Z,26.84
2022-08-02T20:12:54.993Z,27.08
2022-08-02T20:15:23.970Z,27.03
2022-08-02T20:18:26.829Z,26.92
2022-08-02T20:20:57.747Z,26.78
2022-08-02T20:23:33.536Z,26.99
2022-08-02T20:26:10.616Z,26.78
2022-08-02T20:28:41.587Z,26.72
2022-08-02T20:31:13.138Z,26.79
2022-08-02T20:33:55.828Z,26.88
2022-08-02T20:36:25.392Z,27.03
2022-08-02T20:38:54.363Z,27.03
2022-08-02T20:41:23.541Z,26.77
2022-08-02T20:44:16.167Z,26.72
2022-08-02T20:46:59.258Z,26.65
2022-08-02T20:49:40.502Z,26.27
2022-08-02T20:52:23.117Z,26.38
2022-08-02T20:54:53.786Z,26.38
2022-08-02T20:57:48.573Z,26.36
2022-08-02T21:00:11.803Z,26.61
2022-08-02T21:02:40.466Z,26.16
2022-08-02T21:05:15.383Z,26.23
2022-08-02T21:07:47.556Z,26.03
2022-08-02T21:10:16.591Z,26.11
2022-08-02T21:12:45.382Z,26.19
2022-08-02T21:15:13.973Z,26.12
2022-08-02T21:17:45.842Z,26.13
2022-08-02T21:20:27.168Z,26.02
2022-08-02T21:22:55.976Z,26.09
2022-08-02T21:25:50.779Z,25.72
2022-08-02T21:28:17.695Z,25.88
2022-08-02T21:30:46.672Z,25.79
2022-08-02T21:33:23.520Z,25.84
2022-08-02T21:35:54.263Z,25.45
2022-08-02T21:38:36.163Z,25.48
2022-08-02T21:41:12.097Z,25.43
2022-08-02T21:43:43.916Z,25.51
2022-08-02T21:46:14.735Z,25.44
2022-08-02T21:48:42.953Z,25.39
2022-08-02T21:51:16.032Z,25.29
2022-08-02T21:54:16.815Z,24.98
2022-08-02T21:56:32.642Z,25.11
2022-08-02T21:59:15.543Z,25.19
2022-08-02T22:01:52.702Z,25.27
2022-08-02T22:04:33.032Z,25.12
2022-08-02T22:07:03.193Z,25.24
2022-08-02T22:09:43.313Z,25.35
2022-08-02T22:12:18.359Z,25.17
2022-08-02T22:14:54.195Z,25.14
2022-08-02T22:17:50.411Z,25.43
2022-08-02T22:20:13.617Z,25.21
2022-08-02T22:22:43.501Z,25.00
2022-08-02T22:25:26.465Z,24.88
2022-08-02T22:28:12.006Z,25.30
2022-08-02T22:34:01.119Z,25.21
2022-08-02T22:36:30.689Z,25.18
2022-08-02T22:39:01.005Z,24.91
2022-08-02T22:42:00.880Z,24.87
2022-08-02T22:44:20.141Z,25.08
2022-08-02T22:46:49.876Z,25.15
2022-08-02T22:49:38.847Z,24.99
2022-08-02T22:52:07.768Z,24.95
2022-08-02T22:54:37.415Z,25.02
2022-08-02T22:57:07.045Z,24.80
2022-08-02T22:58:43.670Z,29.33
2022-08-02T22:58:48.693Z,33.11
2022-08-02T22:58:49.180Z,30.52
2022-08-02T22:59:00.141Z,29.71
2022-08-02T22:59:11.854Z,25.21
2022-08-02T22:59:42.449Z,25.06
2022-08-02T23:02:11.236Z,24.93
2022-08-02T23:04:41.632Z,24.84
2022-08-02T23:07:09.823Z,24.64
2022-08-02T23:09:39.491Z,24.35
2022-08-02T23:12:08.122Z,24.32
2022-08-02T23:14:36.518Z,24.22
2022-08-02T23:17:22.126Z,24.27
2022-08-02T23:19:52.885Z,24.45
2022-08-02T23:22:29.359Z,24.51
2022-08-02T23:25:02.366Z,24.12
2022-08-02T23:27:31.694Z,24.22
2022-08-02T23:30:00.359Z,24.55
2022-08-02T23:32:29.334Z,24.55
2022-08-02T23:35:00.681Z,24.46
2022-08-02T23:37:28.858Z,24.19
2022-08-02T23:40:38.672Z,24.22
2022-08-02T23:43:14.448Z,24.28
2022-08-02T23:45:46.794Z,23.90
2022-08-02T23:48:15.083Z,23.92
2022-08-02T23:50:43.304Z,24.08
2022-08-02T23:53:11.470Z,24.03
2022-08-02T23:55:41.261Z,24.08
2022-08-02T23:58:09.630Z,24.13
